createdAt,value
2019-04-22T00:00:40.520Z,7.37
2019-04-22T00:02:49.022Z,6.60
2019-04-22T00:04:55.043Z,7.07
2019-04-22T00:07:12.378Z,6.43
2019-04-22T00:09:17.405Z,6.57
2019-04-22T00:11:26.118Z,7.20
2019-04-22T00:13:26.355Z,6.43
2019-04-22T00:15:20.208Z,6.50
2019-04-22T00:19:35.807Z,6.97
2019-04-22T00:23:39.131Z,6.43
2019-04-22T00:25:44.003Z,6.43
2019-04-22T00:27:49.004Z,7.23
2019-04-22T00:30:04.731Z,7.33
2019-04-22T00:32:09.176Z,6.70
2019-04-22T00:34:06.758Z,6.83
2019-04-22T00:36:17.834Z,6.97
2019-04-22T00:38:19.857Z,7.07
2019-04-22T00:40:21.046Z,6.70
2019-04-22T00:42:22.627Z,7.20
2019-04-22T00:44:37.298Z,7.37
2019-04-22T00:46:31.367Z,7.17
2019-04-22T00:48:38.418Z,6.33
2019-04-22T00:50:44.316Z,7.10
2019-04-22T00:52:43.738Z,7.10
2019-04-22T00:54:51.297Z,7.43
2019-04-22T00:56:40.830Z,7.07
2019-04-22T00:58:47.058Z,6.80
2019-04-22T01:00:54.597Z,6.30
2019-04-22T01:03:03.021Z,7.30
2019-04-22T01:05:00.820Z,7.40
2019-04-22T01:07:03.799Z,6.90
2019-04-22T01:09:13.642Z,7.30
2019-04-22T01:11:14.772Z,6.83
2019-04-22T01:13:13.845Z,7.07
2019-04-22T01:15:17.480Z,7.13
2019-04-22T01:17:19.365Z,6.87
2019-04-22T01:19:21.275Z,6.90
2019-04-22T01:21:29.022Z,7.23
2019-04-22T01:23:28.270Z,7.27
2019-04-22T01:25:31.421Z,6.77
2019-04-22T01:27:26.301Z,6.93
2019-04-22T01:29:28.055Z,7.10
2019-04-22T01:31:21.922Z,7.40
2019-04-22T01:33:29.372Z,7.37
2019-04-22T01:35:37.743Z,7.07
2019-04-22T01:37:45.680Z,7.27
2019-04-22T01:39:57.544Z,7.17
2019-04-22T01:42:12.166Z,6.90
2019-04-22T01:44:27.623Z,6.93
2019-04-22T01:46:09.379Z,7.30
2019-04-22T01:48:14.445Z,7.30
2019-04-22T01:50:16.436Z,6.83
2019-04-22T01:52:17.084Z,7.27
2019-04-22T01:54:22.290Z,7.00
2019-04-22T01:56:24.505Z,7.23
2019-04-22T01:58:23.431Z,7.30
2019-04-22T02:00:25.482Z,7.50
2019-04-22T02:02:35.380Z,7.07
2019-04-22T02:04:44.564Z,7.20
2019-04-22T02:06:46.298Z,6.60
2019-04-22T02:08:53.362Z,7.10
2019-04-22T02:10:49.224Z,6.70
2019-04-22T02:12:54.348Z,6.90
2019-04-22T02:14:52.295Z,7.07
2019-04-22T02:16:56.181Z,7.00
2019-04-22T02:19:09.672Z,6.63
2019-04-22T02:21:03.189Z,6.80
2019-04-22T02:25:34.626Z,6.87
2019-04-22T02:27:35.205Z,7.13
2019-04-22T02:29:37.318Z,6.70
2019-04-22T02:34:01.752Z,6.90
2019-04-22T02:37:48.033Z,6.53
2019-04-22T02:39:58.057Z,6.47
2019-04-22T02:42:00.815Z,6.67
2019-04-22T02:44:13.596Z,6.67
2019-04-22T02:48:18.361Z,6.57
2019-04-22T02:50:06.474Z,6.47
2019-04-22T02:52:18.015Z,6.27
2019-04-22T02:54:31.648Z,6.00
2019-04-22T02:56:27.554Z,6.20
2019-04-22T02:58:44.954Z,6.50
2019-04-22T03:00:29.312Z,6.70
2019-04-22T03:04:24.755Z,6.80
2019-04-22T03:06:34.899Z,6.30
2019-04-22T03:08:42.749Z,6.40
2019-04-22T03:12:41.327Z,6.53
2019-04-22T03:21:18.765Z,6.43
2019-04-22T03:25:31.997Z,6.53
2019-04-22T03:27:08.117Z,6.63
2019-04-22T03:29:33.095Z,6.00
2019-04-22T03:31:59.013Z,6.10
2019-04-22T03:35:41.764Z,6.53
2019-04-22T03:39:52.943Z,6.10
2019-04-22T03:44:10.517Z,6.27
2019-04-22T03:45:46.508Z,6.20
2019-04-22T03:52:10.785Z,6.30
2019-04-22T03:54:26.448Z,6.27
2019-04-22T03:56:36.622Z,6.40
2019-04-22T03:58:05.499Z,6.47
2019-04-22T04:00:32.596Z,6.40
2019-04-22T04:06:43.195Z,6.70
2019-04-22T04:08:33.427Z,6.43
2019-04-22T04:10:40.188Z,6.67
2019-04-22T04:14:46.643Z,6.70
2019-04-22T04:16:50.019Z,6.70
2019-04-22T04:18:58.170Z,6.70
2019-04-22T04:23:08.395Z,6.80
2019-04-22T04:27:18.645Z,6.57
2019-04-22T04:29:27.195Z,6.60
2019-04-22T04:31:22.436Z,7.10
2019-04-22T04:33:21.136Z,6.43
2019-04-22T04:35:27.925Z,7.00
2019-04-22T04:41:42.801Z,6.37
2019-04-22T04:43:25.771Z,7.37
2019-04-22T04:45:38.545Z,7.07
2019-04-22T04:49:50.196Z,7.03
2019-04-22T04:51:37.558Z,6.77
2019-04-22T04:53:41.333Z,6.63
2019-04-22T04:55:47.012Z,6.97
2019-04-22T05:01:54.301Z,7.10
2019-04-22T05:04:04.547Z,7.50
2019-04-22T05:06:09.221Z,7.30
2019-04-22T05:07:59.462Z,7.27
2019-04-22T05:10:35.471Z,6.97
2019-04-22T05:14:26.906Z,6.93
2019-04-22T05:18:18.967Z,6.80
2019-04-22T05:22:28.345Z,7.03
2019-04-22T05:26:32.585Z,6.20
2019-04-22T05:28:33.736Z,6.40
2019-04-22T05:30:32.063Z,6.30
2019-04-22T05:34:40.126Z,6.17
2019-04-22T05:36:49.453Z,6.53
2019-04-22T05:40:49.883Z,5.83
2019-04-22T05:42:56.392Z,6.33
2019-04-22T05:45:00.245Z,6.07
2019-04-22T05:47:01.098Z,6.40
2019-04-22T05:49:07.148Z,6.20
2019-04-22T05:51:27.816Z,6.70
2019-04-22T05:53:11.598Z,6.40
2019-04-22T05:55:16.107Z,6.07
2019-04-22T05:57:17.936Z,6.83
2019-04-22T05:59:22.806Z,5.70
2019-04-22T06:01:38.505Z,5.93
2019-04-22T06:03:28.681Z,5.97
2019-04-22T06:05:32.174Z,5.93
2019-04-22T06:07:31.319Z,5.40
2019-04-22T06:09:32.365Z,5.83
2019-04-22T06:13:33.163Z,5.87
2019-04-22T06:15:38.538Z,5.50
2019-04-22T06:17:58.451Z,5.37
2019-04-22T06:19:55.930Z,6.00
2019-04-22T06:21:58.049Z,5.50
2019-04-22T06:24:09.313Z,5.53
2019-04-22T06:26:10.110Z,5.40
2019-04-22T06:28:15.985Z,5.03
2019-04-22T06:30:10.870Z,5.60
2019-04-22T06:34:19.376Z,5.23
2019-04-22T06:36:18.010Z,5.40
2019-04-22T06:38:30.178Z,5.50
2019-04-22T06:40:29.695Z,5.17
2019-04-22T06:42:28.555Z,5.77
2019-04-22T06:44:29.751Z,5.67
2019-04-22T06:46:34.901Z,5.70
2019-04-22T06:48:34.466Z,5.20
2019-04-22T06:50:46.504Z,5.30
2019-04-22T06:52:46.197Z,5.40
2019-04-22T06:54:50.533Z,5.67
2019-04-22T06:56:51.915Z,5.70
2019-04-22T06:58:52.273Z,5.30
2019-04-22T07:00:52.094Z,5.43
2019-04-22T07:03:23.263Z,5.13
2019-04-22T07:05:02.251Z,5.50
2019-04-22T07:07:06.699Z,5.57
2019-04-22T07:11:06.173Z,5.70
2019-04-22T07:13:21.250Z,5.03
2019-04-22T07:15:39.405Z,5.73
2019-04-22T07:17:24.618Z,5.27
2019-04-22T07:19:27.621Z,5.33
2019-04-22T07:21:30.833Z,5.70
2019-04-22T07:23:45.708Z,5.53
2019-04-22T07:25:35.659Z,5.60
2019-04-22T07:27:34.254Z,6.03
2019-04-22T07:29:46.893Z,5.70
2019-04-22T07:31:52.661Z,5.17
2019-04-22T07:34:09.079Z,5.60
2019-04-22T07:36:06.701Z,5.33
2019-04-22T07:38:00.948Z,5.50
2019-04-22T07:39:56.531Z,5.70
2019-04-22T07:41:56.070Z,5.70
2019-04-22T07:46:11.317Z,5.47
2019-04-22T07:48:22.268Z,5.70
2019-04-22T07:50:31.270Z,5.53
2019-04-22T07:52:16.052Z,5.23
2019-04-22T07:54:21.599Z,5.20
2019-04-22T07:56:27.643Z,5.28
2019-04-22T08:00:29.505Z,5.20
2019-04-22T08:02:37.893Z,5.65
2019-04-22T08:06:46.609Z,5.63
2019-04-22T08:08:46.238Z,5.17
2019-04-22T08:10:49.953Z,4.90
2019-04-22T08:12:51.827Z,5.50
2019-04-22T08:14:52.093Z,5.43
2019-04-22T08:16:56.294Z,5.28
2019-04-22T08:19:04.098Z,5.70
2019-04-22T08:21:06.351Z,5.08
2019-04-22T08:23:09.612Z,5.17
2019-04-22T08:25:04.201Z,5.10
2019-04-22T08:27:11.389Z,5.45
2019-04-22T08:29:21.557Z,4.93
2019-04-22T08:31:27.094Z,5.00
2019-04-22T08:33:32.185Z,5.00
2019-04-22T08:39:34.077Z,4.90
2019-04-22T08:43:47.692Z,5.15
2019-04-22T08:46:01.672Z,5.00
2019-04-22T08:47:42.319Z,4.65
2019-04-22T08:49:57.129Z,5.00
2019-04-22T08:51:50.711Z,4.80
2019-04-22T08:53:59.844Z,5.33
2019-04-22T08:56:06.312Z,4.78
2019-04-22T09:00:06.565Z,4.62
2019-04-22T09:02:16.311Z,4.78
2019-04-22T09:04:16.786Z,4.70
2019-04-22T09:08:19.082Z,4.97
2019-04-22T09:10:28.329Z,4.72
2019-04-22T09:12:34.567Z,5.00
2019-04-22T09:16:39.821Z,4.78
2019-04-22T09:18:42.235Z,5.00
2019-04-22T09:20:40.426Z,5.15
2019-04-22T09:22:41.870Z,4.75
2019-04-22T09:24:46.822Z,4.97
2019-04-22T09:27:05.831Z,4.95
2019-04-22T09:29:02.835Z,4.85
2019-04-22T09:31:01.752Z,4.60
2019-04-22T09:33:02.857Z,4.75
2019-04-22T09:35:02.741Z,4.75
2019-04-22T09:37:15.637Z,4.70
2019-04-22T09:39:09.051Z,5.05
2019-04-22T09:41:15.316Z,5.25
2019-04-22T09:43:17.140Z,4.62
2019-04-22T09:45:15.536Z,4.85
2019-04-22T09:47:29.679Z,4.33
2019-04-22T09:49:26.746Z,4.80
2019-04-22T09:51:30.895Z,4.60
2019-04-22T09:53:43.423Z,4.37
2019-04-22T09:55:37.465Z,4.67
2019-04-22T09:57:41.313Z,4.70
2019-04-22T09:59:52.511Z,4.70
2019-04-22T10:02:02.370Z,4.95
2019-04-22T10:03:56.270Z,4.50
2019-04-22T10:06:07.974Z,4.78
2019-04-22T10:07:59.387Z,4.50
2019-04-22T10:10:09.370Z,4.83
2019-04-22T10:12:02.721Z,4.60
2019-04-22T10:14:07.380Z,4.10
2019-04-22T10:16:12.163Z,4.70
2019-04-22T10:18:12.783Z,4.28
2019-04-22T10:20:17.390Z,4.30
2019-04-22T10:22:27.553Z,5.33
2019-04-22T10:24:18.980Z,5.30
2019-04-22T10:26:28.021Z,5.00
2019-04-22T10:28:36.849Z,4.87
2019-04-22T10:30:40.419Z,4.20
2019-04-22T10:32:33.976Z,4.40
2019-04-22T10:34:26.282Z,4.85
2019-04-22T10:36:17.326Z,4.55
2019-04-22T10:38:18.712Z,4.95
2019-04-22T10:40:26.079Z,4.42
2019-04-22T10:42:31.019Z,4.85
2019-04-22T10:44:33.289Z,4.75
2019-04-22T10:46:35.953Z,5.10
2019-04-22T10:48:37.644Z,5.05
2019-04-22T10:50:41.069Z,4.70
2019-04-22T10:52:43.528Z,4.30
2019-04-22T10:54:45.474Z,4.45
2019-04-22T10:56:46.831Z,4.65
2019-04-22T10:58:48.907Z,4.67
2019-04-22T11:00:52.056Z,8.75
2019-04-22T11:02:53.816Z,4.70
2019-04-22T11:04:56.340Z,4.40
2019-04-22T11:07:03.350Z,4.50
2019-04-22T11:09:04.709Z,4.25
2019-04-22T11:11:20.423Z,4.45
2019-04-22T11:13:09.401Z,4.33
2019-04-22T11:15:11.758Z,4.12
2019-04-22T11:17:13.797Z,4.42
2019-04-22T11:19:15.025Z,4.72
2019-04-22T11:21:17.712Z,4.83
2019-04-22T11:23:20.573Z,6.55
2019-04-22T11:25:23.448Z,4.80
2019-04-22T11:27:25.409Z,4.50
2019-04-22T11:29:27.880Z,4.67
2019-04-22T11:31:30.550Z,4.80
2019-04-22T11:33:32.378Z,6.00
2019-04-22T11:35:34.073Z,5.40
2019-04-22T11:37:36.608Z,4.72
2019-04-22T11:39:38.677Z,4.60
2019-04-22T11:41:40.486Z,4.70
2019-04-22T11:43:42.972Z,4.60
2019-04-22T11:45:45.051Z,4.70
2019-04-22T11:47:47.594Z,4.30
2019-04-22T11:49:49.980Z,4.37
2019-04-22T11:51:51.814Z,4.15
2019-04-22T11:53:54.572Z,4.72
2019-04-22T11:55:56.451Z,4.55
2019-04-22T11:57:58.917Z,4.30
2019-04-22T12:00:01.022Z,4.62
2019-04-22T12:02:02.598Z,4.30
2019-04-22T12:04:04.297Z,4.35
2019-04-22T12:06:06.041Z,4.15
2019-04-22T12:08:07.328Z,4.30
2019-04-22T12:10:18.901Z,4.70
2019-04-22T12:12:13.843Z,4.47
2019-04-22T12:14:15.951Z,4.08
2019-04-22T12:16:17.382Z,4.42
2019-04-22T12:18:19.547Z,4.12
2019-04-22T12:20:21.724Z,4.50
2019-04-22T12:22:25.121Z,4.20
2019-04-22T12:24:27.989Z,4.67
2019-04-22T12:26:30.641Z,4.33
2019-04-22T12:28:32.977Z,4.40
2019-04-22T12:30:35.232Z,4.15
2019-04-22T12:32:36.515Z,4.20
2019-04-22T12:34:37.738Z,3.98
2019-04-22T12:36:40.127Z,3.98
2019-04-22T12:38:42.159Z,3.90
2019-04-22T12:40:52.253Z,4.50
2019-04-22T12:42:47.260Z,4.33
2019-04-22T12:44:51.062Z,4.53
2019-04-22T12:46:54.320Z,4.22
2019-04-22T12:48:56.318Z,4.30
2019-04-22T12:50:58.510Z,4.30
2019-04-22T12:53:06.825Z,4.03
2019-04-22T12:55:03.876Z,4.35
2019-04-22T12:57:05.850Z,4.10
2019-04-22T12:59:07.698Z,4.47
2019-04-22T13:01:09.082Z,4.20
2019-04-22T13:03:11.041Z,4.00
2019-04-22T13:05:12.547Z,4.33
2019-04-22T13:07:14.024Z,4.53
2019-04-22T13:09:17.602Z,4.10
2019-04-22T13:11:22.022Z,4.20
2019-04-22T13:13:23.035Z,4.08
2019-04-22T13:15:24.496Z,4.45
2019-04-22T13:17:27.271Z,4.60
2019-04-22T13:19:30.155Z,4.10
2019-04-22T13:21:33.072Z,4.00
2019-04-22T13:23:34.392Z,4.50
2019-04-22T13:25:36.628Z,4.45
2019-04-22T13:27:39.276Z,4.05
2019-04-22T13:29:41.202Z,4.10
2019-04-22T13:31:42.692Z,4.22
2019-04-22T13:33:44.153Z,4.33
2019-04-22T13:35:45.720Z,4.25
2019-04-22T13:37:48.707Z,4.42
2019-04-22T13:39:50.035Z,4.00
2019-04-22T13:41:56.541Z,3.98
2019-04-22T13:43:56.094Z,4.03
2019-04-22T13:45:58.406Z,4.35
2019-04-22T13:48:16.833Z,4.22
2019-04-22T13:50:43.681Z,4.85
2019-04-22T13:56:32.794Z,4.17
2019-04-22T13:58:34.262Z,4.15
2019-04-22T14:00:24.901Z,3.92
2019-04-22T14:03:04.666Z,4.15
2019-04-22T14:05:06.578Z,4.30
2019-04-22T14:07:07.997Z,4.15
2019-04-22T14:09:09.533Z,4.25
2019-04-22T14:11:23.593Z,3.90
2019-04-22T14:13:14.412Z,4.00
2019-04-22T14:15:15.912Z,3.90
2019-04-22T14:17:18.802Z,3.80
2019-04-22T14:19:20.399Z,4.05
2019-04-22T14:21:22.880Z,3.67
2019-04-22T14:23:24.646Z,3.90
2019-04-22T14:25:26.029Z,3.90
2019-04-22T14:27:38.128Z,3.65
2019-04-22T14:29:31.498Z,3.67
2019-04-22T14:31:32.930Z,3.75
2019-04-22T14:33:34.431Z,3.62
2019-04-22T14:35:35.688Z,3.70
2019-04-22T14:37:38.424Z,3.75
2019-04-22T14:39:39.937Z,3.70
2019-04-22T14:41:57.669Z,4.10
2019-04-22T14:45:04.978Z,3.70
2019-04-22T14:46:15.514Z,3.50
2019-04-22T14:48:15.439Z,3.80
2019-04-22T14:50:17.819Z,3.80
2019-04-22T14:52:24.753Z,3.60
2019-04-22T14:54:13.743Z,3.55
2019-04-22T14:56:04.370Z,3.60
2019-04-22T14:58:06.814Z,3.60
2019-04-22T15:00:09.503Z,3.10
2019-04-22T15:02:11.764Z,3.30
2019-04-22T15:04:13.367Z,3.33
2019-04-22T15:06:15.859Z,3.45
2019-04-22T15:08:17.522Z,3.52
2019-04-22T15:10:20.201Z,3.70
2019-04-22T15:12:31.097Z,3.30
2019-04-22T15:14:25.676Z,3.50
2019-04-22T15:16:53.019Z,3.40
2019-04-22T15:19:20.238Z,3.20
2019-04-22T15:21:24.800Z,3.40
2019-04-22T15:23:26.790Z,3.50
2019-04-22T15:25:28.405Z,3.17
2019-04-22T15:27:31.101Z,3.40
2019-04-22T15:29:33.637Z,3.10
2019-04-22T15:31:35.484Z,2.90
2019-04-22T15:33:37.499Z,3.05
2019-04-22T15:35:39.105Z,3.08
2019-04-22T15:37:41.434Z,3.15
2019-04-22T15:39:43.711Z,3.00
2019-04-22T15:41:56.146Z,2.85
2019-04-22T15:43:49.751Z,2.95
2019-04-22T15:45:52.733Z,3.20
2019-04-22T15:47:55.919Z,3.20
2019-04-22T15:49:58.372Z,2.90
2019-04-22T15:52:02.160Z,3.30
2019-04-22T15:54:03.590Z,3.05
2019-04-22T15:56:05.106Z,3.50
2019-04-22T15:58:07.997Z,3.22
2019-04-22T16:00:25.540Z,3.90
2019-04-22T16:02:16.001Z,3.72
2019-04-22T16:04:18.748Z,3.42
2019-04-22T16:06:20.198Z,3.37
2019-04-22T16:08:21.529Z,3.20
2019-04-22T16:10:23.957Z,3.20
2019-04-22T16:12:32.126Z,3.27
2019-04-22T16:14:35.150Z,3.17
2019-04-22T16:16:32.459Z,3.30
2019-04-22T16:18:33.792Z,3.15
2019-04-22T16:20:36.316Z,3.20
2019-04-22T16:22:57.150Z,3.17
2019-04-22T16:25:37.406Z,3.55
2019-04-22T16:27:40.527Z,3.52
2019-04-22T16:29:43.115Z,3.30
2019-04-22T16:31:45.209Z,3.60
2019-04-22T16:33:47.831Z,3.30
2019-04-22T16:35:50.783Z,3.20
2019-04-22T16:37:52.656Z,8.03
2019-04-22T16:39:54.752Z,3.95
2019-04-22T16:41:56.973Z,5.60
2019-04-22T16:43:58.718Z,3.30
2019-04-22T16:46:01.384Z,3.50
2019-04-22T16:48:04.147Z,3.02
2019-04-22T16:50:05.960Z,2.83
2019-04-22T16:52:07.991Z,3.15
2019-04-22T16:54:09.433Z,3.27
2019-04-22T16:56:11.020Z,3.58
2019-04-22T16:58:12.792Z,3.47
2019-04-22T17:00:14.189Z,3.17
2019-04-22T17:02:54.598Z,3.30
2019-04-22T17:05:01.980Z,3.10
2019-04-22T17:07:05.882Z,3.30
2019-04-22T17:09:08.878Z,3.35
2019-04-22T17:11:11.703Z,3.30
2019-04-22T17:13:19.286Z,3.25
2019-04-22T17:15:18.512Z,3.45
2019-04-22T17:17:20.231Z,3.30
2019-04-22T17:19:21.754Z,3.12
2019-04-22T17:21:23.634Z,3.12
2019-04-22T17:23:25.526Z,2.98
2019-04-22T17:25:26.865Z,3.22
2019-04-22T17:27:28.784Z,3.17
2019-04-22T17:29:32.418Z,3.20
2019-04-22T17:31:34.702Z,3.40
2019-04-22T17:33:37.114Z,3.47
2019-04-22T17:35:38.478Z,3.77
2019-04-22T17:37:41.445Z,3.50
2019-04-22T17:39:52.806Z,3.45
2019-04-22T17:42:05.052Z,3.50
2019-04-22T17:44:13.644Z,3.22
2019-04-22T17:46:30.172Z,3.25
2019-04-22T17:49:10.915Z,3.25
2019-04-22T17:51:16.123Z,3.10
2019-04-22T17:53:22.956Z,3.30
2019-04-22T17:55:11.433Z,3.52
2019-04-22T17:57:21.719Z,3.30
2019-04-22T17:59:26.910Z,3.85
2019-04-22T18:01:29.548Z,3.15
2019-04-22T18:03:23.940Z,3.75
2019-04-22T18:05:16.720Z,3.60
2019-04-22T18:07:39.847Z,3.70
2019-04-22T18:10:14.749Z,3.45
2019-04-22T18:11:46.277Z,3.60
2019-04-22T18:13:58.883Z,3.50
2019-04-22T18:15:54.907Z,3.67
2019-04-22T18:18:01.065Z,3.40
2019-04-22T18:19:54.600Z,3.90
2019-04-22T18:21:54.553Z,3.50
2019-04-22T18:23:53.980Z,3.87
2019-04-22T18:26:11.132Z,3.47
2019-04-22T18:28:15.208Z,3.65
2019-04-22T18:30:09.222Z,3.63
2019-04-22T18:32:08.904Z,3.30
2019-04-22T18:34:10.209Z,3.20
2019-04-22T18:36:19.269Z,3.72
2019-04-22T18:38:33.197Z,3.67
2019-04-22T18:40:30.894Z,3.45
2019-04-22T18:42:27.118Z,3.72
2019-04-22T18:44:34.807Z,3.85
2019-04-22T18:46:37.121Z,4.12
2019-04-22T18:48:37.839Z,3.50
2019-04-22T18:50:53.231Z,4.05
2019-04-22T18:53:11.016Z,3.62
2019-04-22T18:55:17.937Z,4.30
2019-04-22T18:57:25.336Z,3.62
2019-04-22T18:59:14.603Z,4.00
2019-04-22T19:01:13.207Z,3.93
2019-04-22T19:03:21.674Z,4.20
2019-04-22T19:05:30.224Z,3.60
2019-04-22T19:07:42.490Z,3.87
2019-04-22T19:09:59.766Z,4.00
2019-04-22T19:12:06.237Z,4.00
2019-04-22T19:16:11.187Z,4.28
2019-04-22T19:18:03.953Z,4.28
2019-04-22T19:22:03.447Z,4.58
2019-04-22T19:24:06.054Z,4.85
2019-04-22T19:26:13.802Z,4.42
2019-04-22T19:28:23.928Z,4.50
2019-04-22T19:30:18.984Z,4.50
2019-04-22T19:32:23.032Z,4.50
2019-04-22T19:34:25.686Z,4.60
2019-04-22T19:36:26.421Z,4.15
2019-04-22T19:38:21.905Z,4.30
2019-04-22T19:40:40.415Z,4.40
2019-04-22T19:42:47.195Z,4.47
2019-04-22T19:44:46.861Z,4.80
2019-04-22T19:46:55.762Z,4.90
2019-04-22T19:48:50.038Z,4.45
2019-04-22T19:50:58.928Z,4.40
2019-04-22T19:53:01.268Z,4.40
2019-04-22T19:55:01.809Z,4.83
2019-04-22T19:56:53.076Z,4.37
2019-04-22T19:59:02.097Z,4.53
2019-04-22T20:01:44.116Z,4.50
2019-04-22T20:04:13.613Z,4.20
2019-04-22T20:06:15.852Z,4.30
2019-04-22T20:08:14.270Z,4.50
2019-04-22T20:10:20.649Z,4.43
2019-04-22T20:12:21.828Z,4.10
2019-04-22T20:14:33.709Z,4.00
2019-04-22T20:16:27.289Z,4.00
2019-04-22T20:18:39.447Z,4.47
2019-04-22T20:20:42.095Z,4.33
2019-04-22T20:22:41.676Z,4.13
2019-04-22T20:24:28.390Z,4.30
2019-04-22T20:26:51.247Z,3.90
2019-04-22T20:28:52.250Z,3.97
2019-04-22T20:30:50.525Z,4.33
2019-04-22T20:32:51.122Z,4.23
2019-04-22T20:35:02.972Z,4.00
2019-04-22T20:37:10.231Z,3.83
2019-04-22T20:39:02.201Z,4.60
2019-04-22T20:41:08.837Z,4.30
2019-04-22T20:43:17.610Z,3.83
2019-04-22T20:45:19.587Z,4.17
2019-04-22T20:47:16.459Z,3.97
2019-04-22T20:49:25.592Z,4.10
2019-04-22T20:51:38.526Z,4.27
2019-04-22T20:53:31.455Z,4.07
2019-04-22T20:55:25.471Z,4.07
2019-04-22T20:57:35.276Z,4.00
2019-04-22T20:59:33.318Z,3.83
2019-04-22T21:01:38.184Z,3.90
2019-04-22T21:03:33.216Z,4.40
2019-04-22T21:05:40.108Z,3.93
2019-04-22T21:07:49.854Z,3.90
2019-04-22T21:09:56.916Z,4.10
2019-04-22T21:11:51.841Z,4.10
2019-04-22T21:14:01.393Z,4.30
2019-04-22T21:16:09.334Z,4.20
2019-04-22T21:18:05.839Z,3.73
2019-04-22T21:22:16.234Z,3.93
2019-04-22T21:24:09.202Z,3.90
2019-04-22T21:26:19.512Z,4.03
2019-04-22T21:28:31.216Z,4.20
2019-04-22T21:30:29.162Z,4.00
2019-04-22T21:32:31.249Z,4.40
2019-04-22T21:34:31.709Z,4.17
2019-04-22T21:37:00.980Z,4.47
2019-04-22T21:38:42.494Z,4.20
2019-04-22T21:40:44.148Z,4.00
2019-04-22T21:42:54.811Z,4.10
2019-04-22T21:44:44.110Z,4.17
2019-04-22T21:46:57.406Z,4.03
2019-04-22T21:49:02.906Z,4.03
2019-04-22T21:51:04.525Z,3.80
2019-04-22T21:53:07.307Z,4.07
2019-04-22T21:55:10.534Z,4.07
2019-04-22T21:57:50.969Z,4.60
2019-04-22T21:59:34.685Z,4.33
2019-04-22T22:01:52.571Z,4.43
2019-04-22T22:03:56.942Z,4.00
2019-04-22T22:05:47.270Z,3.90
2019-04-22T22:07:48.022Z,4.43
2019-04-22T22:10:04.282Z,4.27
2019-04-22T22:12:02.651Z,4.27
2019-04-22T22:14:07.481Z,4.20
2019-04-22T22:16:10.321Z,4.20
2019-04-22T22:18:14.637Z,4.07
2019-04-22T22:20:14.653Z,4.10
2019-04-22T22:24:27.273Z,4.30
2019-04-22T22:26:26.712Z,4.60
2019-04-22T22:28:46.866Z,4.50
2019-04-22T22:32:40.222Z,4.37
2019-04-22T22:34:43.472Z,3.97
2019-04-22T22:36:44.465Z,3.80
2019-04-22T22:38:45.648Z,3.90
2019-04-22T22:40:34.482Z,4.33
2019-04-22T22:42:41.548Z,4.47
2019-04-22T22:44:44.733Z,4.13
2019-04-22T22:46:59.093Z,4.17
2019-04-22T22:49:09.870Z,4.33
2019-04-22T22:51:09.668Z,4.20
2019-04-22T22:53:20.995Z,4.37
2019-04-22T22:55:16.396Z,4.37
2019-04-22T22:57:21.462Z,4.47
2019-04-22T22:59:25.168Z,4.10
2019-04-22T23:01:26.736Z,4.23
2019-04-22T23:03:48.336Z,4.23
2019-04-22T23:05:38.882Z,4.37
2019-04-22T23:07:44.661Z,4.23
2019-04-22T23:09:41.876Z,4.50
2019-04-22T23:11:59.888Z,4.60
2019-04-22T23:13:42.677Z,4.40
2019-04-22T23:15:43.028Z,4.43
2019-04-22T23:17:34.286Z,4.20
2019-04-22T23:19:40.652Z,4.47
2019-04-22T23:21:43.962Z,4.60
2019-04-22T23:23:57.811Z,4.50
2019-04-22T23:26:20.908Z,4.87
2019-04-22T23:28:10.125Z,4.60
2019-04-22T23:30:21.533Z,4.93
2019-04-22T23:32:25.351Z,4.63
2019-04-22T23:34:32.817Z,4.70
2019-04-22T23:36:41.374Z,4.53
2019-04-22T23:38:51.814Z,5.17
2019-04-22T23:40:47.765Z,4.80
2019-04-22T23:42:59.600Z,4.90
2019-04-22T23:45:03.600Z,4.67
2019-04-22T23:47:06.049Z,4.93
2019-04-22T23:49:11.731Z,5.10
2019-04-22T23:51:16.757Z,5.20
2019-04-22T23:53:42.698Z,5.10
2019-04-22T23:55:33.204Z,5.07
2019-04-22T23:57:41.853Z,5.40
2019-04-22T23:59:44.940Z,5.17
